Ikarus — SWEW — position and weather

sailwx.info

Track history (hours):
 
Tides and Currents Weather Stations Pressure Air Temp Water Temp Dewpoint Dewpoint Depression Visibility Wind Speed Wind Dir Waves Ship Positions

Ikarus

Last reported at 2015-Sep-01 00:04 UTC. Time now 2015-Sep-01 08:04 UTC.
Position N 36°22' W 002°39'.

Length 200 m; draft 6.7 m.

Type: Ship. MMSI: 239513000.

Date/timePositionNaut miles runAvg speedWind from/ knotsBaromVisibWave heightAir tempDewpointWater temp
2015-Sep-01 00:04N 36°22' W 002°39'915.6
2015-Aug-31 23:30N 36°23' W 002°28'8115.4
2015-Aug-31 18:14N 37°11' W 001°06'1116.1
2015-Aug-31 17:33N 37°19' W 000°56'1616.3
2015-Aug-31 16:33N 37°30' W 000°40'1615.9
2015-Aug-31 15:34N 37°42' W 000°28'1616.0
2015-Aug-31 14:33N 37°56' W 000°17'1615.9
2015-Aug-31 13:33N 38°09' W 000°06'1615.7
2015-Aug-31 12:33N 38°22' E 000°05'1615.6
2015-Aug-31 11:33N 38°35' E 000°16'1616.1
2015-Aug-31 10:33N 38°49' E 000°27'6416.0
2015-Aug-31 06:33N 39°45' E 001°07'1615.9
2015-Aug-31 05:33N 39°59' E 001°16'1616.1
2015-Aug-31 04:33N 40°13' E 001°26'1616.3
2015-Aug-31 03:33N 40°28' E 001°36'1616.4
2015-Aug-31 02:33N 40°42' E 001°46'1716.7
2015-Aug-31 01:33N 40°57' E 001°56'1616.1
2015-Aug-31 00:33N 41°11' E 002°07'10 1.7
2015-Aug-30 18:33N 41°21' E 002°10'6 6.2
2015-Aug-30 17:33N 41°18' E 002°18'2019.8
2015-Aug-30 16:33N 41°26' E 002°42'1919.2
2015-Aug-30 15:33N 41°33' E 003°06'2019.7
2015-Aug-30 14:34N 41°40' E 003°31'2019.9
2015-Aug-30 13:33N 41°47' E 003°56'1919.4
2015-Aug-30 12:33N 41°54' E 004°20'2219.5
2015-Aug-30 11:25N 42°02' E 004°48'1719.3
2015-Aug-30 10:34N 42°09' E 005°08'2019.7
2015-Aug-30 09:33N 42°16' E 005°33'2019.8
2015-Aug-30 08:33N 42°23' E 005°58'2019.8
2015-Aug-30 07:33N 42°30' E 006°23'2019.5
2015-Aug-30 06:33N 42°38' E 006°47'1919.5
2015-Aug-30 05:33N 42°45' E 007°12'2119.9
2015-Aug-30 04:31N 42°52' E 007°38'1919.8
2015-Aug-30 03:33N 42°59' E 008°02'2019.9
2015-Aug-30 02:33N 43°07' E 008°28'2019.6
2015-Aug-30 01:33N 43°14' E 008°53'1919.5
2015-Aug-30 00:33N 43°21' E 009°18'1919.4
2015-Aug-29 23:33N 43°28' E 009°42'1918.7
2015-Aug-29 22:32N 43°30' E 010°09'8 7.6
2015-Aug-29 21:26N 43°35' E 010°18'0 0.0
2015-Aug-29 20:32N 43°35' E 010°18'0 0.0
2015-Aug-29 19:26N 43°35' E 010°18'0 0.0
2015-Aug-29 18:32N 43°35' E 010°18'0 0.0
2015-Aug-29 17:32N 43°35' E 010°18'0 0.0
2015-Aug-29 16:32N 43°35' E 010°18'0 0.0
2015-Aug-29 15:32N 43°35' E 010°18'0 0.0
2015-Aug-29 14:32N 43°35' E 010°18'0 0.0
2015-Aug-29 13:32N 43°35' E 010°18'0 0.0
2015-Aug-29 12:32N 43°35' E 010°18'0 0.0
2015-Aug-29 11:26N 43°35' E 010°18'0 0.0
2015-Aug-29 10:32N 43°35' E 010°18'0 0.0
2015-Aug-29 09:20N 43°35' E 010°18'0 0.0
2015-Aug-29 08:32N 43°35' E 010°18'0 0.0
2015-Aug-29 07:32N 43°35' E 010°18'0 0.0
2015-Aug-28 23:29N 43°35' E 010°18'0 0.0
2015-Aug-28 21:29N 43°35' E 010°18'0 0.0
2015-Aug-28 17:29N 43°35' E 010°18'0 0.0
2015-Aug-28 16:32N 43°35' E 010°18'0 0.0
2015-Aug-28 15:29N 43°35' E 010°18'0 0.0
2015-Aug-28 14:26N 43°35' E 010°18'0 0.0
2015-Aug-28 13:14N 43°35' E 010°18'0 0.0
2015-Aug-28 12:29N 43°35' E 010°18'0 0.0
2015-Aug-28 11:29N 43°35' E 010°18'0 0.0
2015-Aug-28 10:32N 43°35' E 010°18'0 0.0
2015-Aug-28 09:11N 43°35' E 010°18'0 0.0
2015-Aug-28 08:32N 43°35' E 010°18'0 0.0
2015-Aug-28 01:17N 43°35' E 010°18'0 0.0
2015-Aug-28 00:29N 43°35' E 010°18'0 0.0
2015-Aug-27 21:17N 43°35' E 010°18'0 0.0
2015-Aug-27 20:11N 43°35' E 010°18'0 0.0
2015-Aug-27 19:23N 43°35' E 010°18'1 0.7
2015-Aug-27 18:33N 43°34' E 010°18'1010.2
2015-Aug-27 17:32N 43°27' E 010°08'2719.2
2015-Aug-27 16:07N 43°14' E 009°35'1119.5
2015-Aug-27 15:33N 43°10' E 009°21'1918.9
2015-Aug-27 14:33N 43°04' E 008°57'2019.4
2015-Aug-27 13:32N 42°58' E 008°31'2020.0
2015-Aug-27 12:33N 42°51' E 008°06'2019.8
2015-Aug-27 11:33N 42°44' E 007°41'2020.0
2015-Aug-27 10:33N 42°38' E 007°15'2020.3
2015-Aug-27 09:34N 42°31' E 006°49'2020.4
2015-Aug-27 08:34N 42°24' E 006°23'2120.5
2015-Aug-27 07:33N 42°17' E 005°56'2020.6
2015-Aug-27 06:33N 42°10' E 005°31'7020.8
2015-Aug-27 03:11N 41°47' E 004°02'1820.4
2015-Aug-27 02:19N 41°40' E 003°40'1620.2
2015-Aug-27 01:31N 41°35' E 003°20'2220.3
2015-Aug-27 00:27N 41°27' E 002°52'3217.2
2015-Aug-26 22:34N 41°20' E 002°10'2 1.7
2015-Aug-26 21:18N 41°22' E 002°11'0 0.0
2015-Aug-26 20:33N 41°22' E 002°11'0 0.0
2015-Aug-26 19:06N 41°22' E 002°11'0 0.0
2015-Aug-26 18:33N 41°22' E 002°11'9 9.3
2015-Aug-26 17:33N 41°13' E 002°09'2120.8
2015-Aug-26 16:33N 40°54' E 001°56'2121.1
2015-Aug-26 15:33N 40°36' E 001°43'2120.9
2015-Aug-26 14:33N 40°17' E 001°31'2121.0
2015-Aug-26 13:33N 39°58' E 001°18'2221.4
2015-Aug-26 12:33N 39°39' E 001°06'2121.1
2015-Aug-26 11:32N 39°20' E 000°53'8920.8
2015-Aug-26 07:14N 38°03' W 000°06'1420.5
2015-Aug-26 06:34N 37°52' W 000°16'2120.5
2015-Aug-26 05:33N 37°35' W 000°30'2020.3
2015-Aug-26 04:34N 37°21' W 000°49'27 0.8
2015-Aug-24 20:21N 37°04' W 001°16'1315.2
2015-Aug-24 19:31N 37°12' W 001°04'1515.1
2015-Aug-24 18:33N 37°23' W 000°51'1515.2
2015-Aug-24 17:33N 37°33' W 000°37'1514.7
2015-Aug-24 16:33N 37°44' W 000°25'1414.6
2015-Aug-24 15:33N 37°56' W 000°15'9115.1
2015-Aug-24 09:33N 39°14' E 000°45'2814.2
2015-Aug-24 07:33N 39°39' E 001°03'1414.5
2015-Aug-24 06:34N 39°51' E 001°12'1514.9
2015-Aug-24 05:33N 40°04' E 001°21'1515.4
2015-Aug-24 04:33N 40°18' E 001°31'1615.8
2015-Aug-24 03:33N 40°32' E 001°40'1615.7
2015-Aug-24 02:33N 40°46' E 001°50'1515.4
2015-Aug-24 01:33N 40°59' E 001°60'1515.2
2015-Aug-24 00:33N 41°13' E 002°09'10 9.5
2015-Aug-23 23:33N 41°22' E 002°11'0 0.0
2015-Aug-23 22:31N 41°22' E 002°11'0 0.0
2015-Aug-23 21:31N 41°22' E 002°11'0 0.0
2015-Aug-23 20:31N 41°22' E 002°11'0 0.0
2015-Aug-23 19:31N 41°22' E 002°11'0 0.2
2015-Aug-23 18:34N 41°22' E 002°11'6 5.7
2015-Aug-23 17:33N 41°19' E 002°17'1919.1
2015-Aug-23 16:33N 41°27' E 002°41'19219.2
2015-Aug-23 06:32N 42°49' E 006°35'1919.6
2015-Aug-23 05:33N 42°55' E 007°00'2320.0
2015-Aug-23 04:26N 43°01' E 007°30'  
Track history (hours):
 
Tides and Currents Weather Stations Pressure Air Temp Water Temp Dewpoint Dewpoint Depression Visibility Wind Speed Wind Dir Waves Ship Positions

Ikarus

Last reported at 2015-Sep-01 00:04 UTC. Time now 2015-Sep-01 08:04 UTC.
Position N 36°22' W 002°39'.

Length 200 m; draft 6.7 m.

Type: Ship. MMSI: 239513000.

Date/timePositionNaut miles runAvg speedWind from/ knotsBaromVisibWave heightAir tempDewpointWater temp
2015-Sep-01 00:04N 36°22' W 002°39'915.6
2015-Aug-31 23:30N 36°23' W 002°28'8115.4
2015-Aug-31 18:14N 37°11' W 001°06'1116.1
2015-Aug-31 17:33N 37°19' W 000°56'1616.3
2015-Aug-31 16:33N 37°30' W 000°40'1615.9
2015-Aug-31 15:34N 37°42' W 000°28'1616.0
2015-Aug-31 14:33N 37°56' W 000°17'1615.9
2015-Aug-31 13:33N 38°09' W 000°06'1615.7
2015-Aug-31 12:33N 38°22' E 000°05'1615.6
2015-Aug-31 11:33N 38°35' E 000°16'1616.1
2015-Aug-31 10:33N 38°49' E 000°27'6416.0
2015-Aug-31 06:33N 39°45' E 001°07'1615.9
2015-Aug-31 05:33N 39°59' E 001°16'1616.1
2015-Aug-31 04:33N 40°13' E 001°26'1616.3
2015-Aug-31 03:33N 40°28' E 001°36'1616.4
2015-Aug-31 02:33N 40°42' E 001°46'1716.7
2015-Aug-31 01:33N 40°57' E 001°56'1616.1
2015-Aug-31 00:33N 41°11' E 002°07'10 1.7
2015-Aug-30 18:33N 41°21' E 002°10'6 6.2
2015-Aug-30 17:33N 41°18' E 002°18'2019.8
2015-Aug-30 16:33N 41°26' E 002°42'1919.2
2015-Aug-30 15:33N 41°33' E 003°06'2019.7
2015-Aug-30 14:34N 41°40' E 003°31'2019.9
2015-Aug-30 13:33N 41°47' E 003°56'1919.4
2015-Aug-30 12:33N 41°54' E 004°20'2219.5
2015-Aug-30 11:25N 42°02' E 004°48'1719.3
2015-Aug-30 10:34N 42°09' E 005°08'2019.7
2015-Aug-30 09:33N 42°16' E 005°33'2019.8
2015-Aug-30 08:33N 42°23' E 005°58'2019.8
2015-Aug-30 07:33N 42°30' E 006°23'2019.5
2015-Aug-30 06:33N 42°38' E 006°47'1919.5
2015-Aug-30 05:33N 42°45' E 007°12'2119.9
2015-Aug-30 04:31N 42°52' E 007°38'1919.8
2015-Aug-30 03:33N 42°59' E 008°02'2019.9
2015-Aug-30 02:33N 43°07' E 008°28'2019.6
2015-Aug-30 01:33N 43°14' E 008°53'1919.5
2015-Aug-30 00:33N 43°21' E 009°18'1919.4
2015-Aug-29 23:33N 43°28' E 009°42'1918.7
2015-Aug-29 22:32N 43°30' E 010°09'8 7.6
2015-Aug-29 21:26N 43°35' E 010°18'0 0.0
2015-Aug-29 20:32N 43°35' E 010°18'0 0.0
2015-Aug-29 19:26N 43°35' E 010°18'0 0.0
2015-Aug-29 18:32N 43°35' E 010°18'0 0.0
2015-Aug-29 17:32N 43°35' E 010°18'0 0.0
2015-Aug-29 16:32N 43°35' E 010°18'0 0.0
2015-Aug-29 15:32N 43°35' E 010°18'0 0.0
2015-Aug-29 14:32N 43°35' E 010°18'0 0.0
2015-Aug-29 13:32N 43°35' E 010°18'0 0.0
2015-Aug-29 12:32N 43°35' E 010°18'0 0.0
2015-Aug-29 11:26N 43°35' E 010°18'0 0.0
2015-Aug-29 10:32N 43°35' E 010°18'0 0.0
2015-Aug-29 09:20N 43°35' E 010°18'0 0.0
2015-Aug-29 08:32N 43°35' E 010°18'0 0.0
2015-Aug-29 07:32N 43°35' E 010°18'0 0.0
2015-Aug-28 23:29N 43°35' E 010°18'0 0.0
2015-Aug-28 21:29N 43°35' E 010°18'0 0.0
2015-Aug-28 17:29N 43°35' E 010°18'0 0.0
2015-Aug-28 16:32N 43°35' E 010°18'0 0.0
2015-Aug-28 15:29N 43°35' E 010°18'0 0.0
2015-Aug-28 14:26N 43°35' E 010°18'0 0.0
2015-Aug-28 13:14N 43°35' E 010°18'0 0.0
2015-Aug-28 12:29N 43°35' E 010°18'0 0.0
2015-Aug-28 11:29N 43°35' E 010°18'0 0.0
2015-Aug-28 10:32N 43°35' E 010°18'0 0.0
2015-Aug-28 09:11N 43°35' E 010°18'0 0.0
2015-Aug-28 08:32N 43°35' E 010°18'0 0.0
2015-Aug-28 01:17N 43°35' E 010°18'0 0.0
2015-Aug-28 00:29N 43°35' E 010°18'0 0.0
2015-Aug-27 21:17N 43°35' E 010°18'0 0.0
2015-Aug-27 20:11N 43°35' E 010°18'0 0.0
2015-Aug-27 19:23N 43°35' E 010°18'1 0.7
2015-Aug-27 18:33N 43°34' E 010°18'1010.2
2015-Aug-27 17:32N 43°27' E 010°08'2719.2
2015-Aug-27 16:07N 43°14' E 009°35'1119.5
2015-Aug-27 15:33N 43°10' E 009°21'1918.9
2015-Aug-27 14:33N 43°04' E 008°57'2019.4
2015-Aug-27 13:32N 42°58' E 008°31'2020.0
2015-Aug-27 12:33N 42°51' E 008°06'2019.8
2015-Aug-27 11:33N 42°44' E 007°41'2020.0
2015-Aug-27 10:33N 42°38' E 007°15'2020.3
2015-Aug-27 09:34N 42°31' E 006°49'2020.4
2015-Aug-27 08:34N 42°24' E 006°23'2120.5
2015-Aug-27 07:33N 42°17' E 005°56'2020.6
2015-Aug-27 06:33N 42°10' E 005°31'7020.8
2015-Aug-27 03:11N 41°47' E 004°02'1820.4
2015-Aug-27 02:19N 41°40' E 003°40'1620.2
2015-Aug-27 01:31N 41°35' E 003°20'2220.3
2015-Aug-27 00:27N 41°27' E 002°52'3217.2
2015-Aug-26 22:34N 41°20' E 002°10'2 1.7
2015-Aug-26 21:18N 41°22' E 002°11'0 0.0
2015-Aug-26 20:33N 41°22' E 002°11'0 0.0
2015-Aug-26 19:06N 41°22' E 002°11'0 0.0
2015-Aug-26 18:33N 41°22' E 002°11'9 9.3
2015-Aug-26 17:33N 41°13' E 002°09'2120.8
2015-Aug-26 16:33N 40°54' E 001°56'2121.1
2015-Aug-26 15:33N 40°36' E 001°43'2120.9
2015-Aug-26 14:33N 40°17' E 001°31'2121.0
2015-Aug-26 13:33N 39°58' E 001°18'2221.4
2015-Aug-26 12:33N 39°39' E 001°06'2121.1
2015-Aug-26 11:32N 39°20' E 000°53'8920.8
2015-Aug-26 07:14N 38°03' W 000°06'1420.5
2015-Aug-26 06:34N 37°52' W 000°16'2120.5
2015-Aug-26 05:33N 37°35' W 000°30'2020.3
2015-Aug-26 04:34N 37°21' W 000°49'27 0.8
2015-Aug-24 20:21N 37°04' W 001°16'1315.2
2015-Aug-24 19:31N 37°12' W 001°04'1515.1
2015-Aug-24 18:33N 37°23' W 000°51'1515.2
2015-Aug-24 17:33N 37°33' W 000°37'1514.7
2015-Aug-24 16:33N 37°44' W 000°25'1414.6
2015-Aug-24 15:33N 37°56' W 000°15'9115.1
2015-Aug-24 09:33N 39°14' E 000°45'2814.2
2015-Aug-24 07:33N 39°39' E 001°03'1414.5
2015-Aug-24 06:34N 39°51' E 001°12'1514.9
2015-Aug-24 05:33N 40°04' E 001°21'1515.4
2015-Aug-24 04:33N 40°18' E 001°31'1615.8
2015-Aug-24 03:33N 40°32' E 001°40'1615.7
2015-Aug-24 02:33N 40°46' E 001°50'1515.4
2015-Aug-24 01:33N 40°59' E 001°60'1515.2
2015-Aug-24 00:33N 41°13' E 002°09'10 9.5
2015-Aug-23 23:33N 41°22' E 002°11'0 0.0
2015-Aug-23 22:31N 41°22' E 002°11'0 0.0
2015-Aug-23 21:31N 41°22' E 002°11'0 0.0
2015-Aug-23 20:31N 41°22' E 002°11'0 0.0
2015-Aug-23 19:31N 41°22' E 002°11'0 0.2
2015-Aug-23 18:34N 41°22' E 002°11'6 5.7
2015-Aug-23 17:33N 41°19' E 002°17'1919.1
2015-Aug-23 16:33N 41°27' E 002°41'19219.2
2015-Aug-23 06:32N 42°49' E 006°35'1919.6
2015-Aug-23 05:33N 42°55' E 007°00'2320.0
2015-Aug-23 04:26N 43°01' E 007°30'  

Dump ship's entire track history